Time;durP1;ratioP1;P1;durP2;ratioP2;P2;SDS_P1;SDS_P2;PMS_P1;PMS_P2;Temp;Humidity;BMP_temperature;BMP_pressure;BME280_temperature;BME280_humidity;BME280_pressure;Samples;Min_cycle;Max_cycle;Signal;HPM_P1;HPM_P2
2022/06/18 00:00:57;;;;;;;5.60;3.60;;;20.60;1.00;;;;;;5042259;28;20411;-75
2022/06/18 00:03:25;;;;;;;4.90;3.80;;;20.60;1.00;;;;;;5051022;28;20912;-75
2022/06/18 00:05:54;;;;;;;4.00;3.10;;;20.50;1.00;;;;;;5040105;28;20174;-75
2022/06/18 00:08:23;;;;;;;4.57;3.57;;;20.50;1.00;;;;;;5030805;28;20874;-75
2022/06/18 00:13:39;;;;;;;6.17;3.70;;;20.60;1.00;;;;;;5031375;28;20463;-75
2022/06/18 00:13:45;;;;;;;5.73;4.00;;;20.40;1.00;;;;;;5031254;28;20396;-75
2022/06/18 00:16:14;;;;;;;13.90;3.60;;;20.30;1.00;;;;;;5031290;28;20396;-75
2022/06/18 00:18:41;;;;;;;5.43;3.40;;;20.20;1.00;;;;;;5030364;28;20588;-75
2022/06/18 00:21:08;;;;;;;4.60;3.37;;;20.00;1.00;;;;;;5030462;28;20529;-75
2022/06/18 00:23:36;;;;;;;4.40;3.53;;;19.90;1.00;;;;;;5030765;28;20539;-75
2022/06/18 00:26:02;;;;;;;6.03;3.47;;;19.70;1.00;;;;;;5031288;28;20470;-74
2022/06/18 00:28:31;;;;;;;7.30;3.97;;;19.70;1.00;;;;;;5027869;28;20441;-75
2022/06/18 00:30:57;;;;;;;4.73;3.50;;;19.40;1.00;;;;;;5041262;28;20698;-75
2022/06/18 00:33:24;;;;;;;5.40;3.80;;;19.40;1.00;;;;;;5050512;28;20493;-75
2022/06/18 00:35:51;;;;;;;9.73;3.93;;;19.40;1.00;;;;;;5050285;28;20513;-75
2022/06/18 00:38:38;;;;;;;7.33;3.67;;;19.30;1.00;;;;;;5050842;28;20419;-75
2022/06/18 00:41:05;;;;;;;5.07;3.63;;;19.30;1.00;;;;;;5050145;28;20430;-75
2022/06/18 00:43:46;;;;;;;6.40;3.80;;;19.20;1.00;;;;;;5045468;28;20488;-75
2022/06/18 00:46:24;;;;;;;5.00;3.63;;;19.10;1.00;;;;;;5024142;28;20404;-75
2022/06/18 00:49:06;;;;;;;5.10;3.67;;;19.10;1.00;;;;;;5020880;28;20449;-75
2022/06/18 00:51:40;;;;;;;8.57;4.40;;;18.90;1.00;;;;;;5024224;28;20614;-74
2022/06/18 00:54:18;;;;;;;5.70;4.30;;;18.90;1.00;;;;;;5036747;28;20412;-74
2022/06/18 00:56:51;;;;;;;5.93;3.80;;;18.80;1.00;;;;;;5048245;28;20410;-74
2022/06/18 00:59:53;;;;;;;13.43;4.53;;;18.70;1.00;;;;;;5042056;28;20395;-74
2022/06/18 01:02:28;;;;;;;8.50;4.60;;;18.70;1.00;;;;;;5039058;28;20912;-75
2022/06/18 01:04:54;;;;;;;6.53;4.13;;;18.70;1.00;;;;;;5050086;28;20447;-74
2022/06/18 01:07:30;;;;;;;6.53;4.90;;;18.70;1.00;;;;;;5048117;28;20489;-74
2022/06/18 01:09:57;;;;;;;8.87;4.30;;;18.70;1.00;;;;;;5050412;28;20195;-74
2022/06/18 01:12:24;;;;;;;6.50;4.63;;;18.80;1.00;;;;;;5049597;28;20554;-74
2022/06/18 01:15:00;;;;;;;7.67;5.50;;;18.80;1.00;;;;;;5050075;28;20780;-75
2022/06/18 01:17:26;;;;;;;8.50;4.63;;;18.80;1.00;;;;;;5050177;28;20453;-74
2022/06/18 01:19:52;;;;;;;7.10;4.80;;;18.80;1.00;;;;;;5049559;28;20418;-75
2022/06/18 01:22:46;;;;;;;12.13;4.80;;;18.80;1.00;;;;;;5048666;28;20411;-75
2022/06/18 01:25:13;;;;;;;9.80;4.13;;;18.80;1.00;;;;;;5032616;28;20193;-74
2022/06/18 01:27:39;;;;;;;7.97;4.57;;;18.80;1.00;;;;;;5024857;28;20485;-74
2022/06/18 01:30:14;;;;;;;7.10;4.33;;;18.70;1.00;;;;;;5033817;28;20413;-75
2022/06/18 01:32:42;;;;;;;6.80;4.47;;;18.60;1.00;;;;;;5046637;28;20406;-74
2022/06/18 01:35:09;;;;;;;6.70;4.50;;;18.50;1.00;;;;;;5048803;28;20403;-74
2022/06/18 01:37:35;;;;;;;10.67;3.93;;;18.40;1.00;;;;;;5049446;28;20957;-74
2022/06/18 01:40:01;;;;;;;5.03;3.83;;;18.40;1.00;;;;;;5049408;28;20400;-74
2022/06/18 01:42:35;;;;;;;8.07;4.30;;;18.50;1.00;;;;;;5049047;28;20184;-74
2022/06/18 01:45:06;;;;;;;6.43;4.37;;;18.50;1.00;;;;;;5049749;28;20520;-75
2022/06/18 01:47:43;;;;;;;7.30;4.63;;;18.50;1.00;;;;;;5042218;28;20553;-75
2022/06/18 01:50:33;;;;;;;5.80;4.30;;;18.50;1.00;;;;;;5028397;28;20412;-74
2022/06/18 01:53:21;;;;;;;7.57;4.10;;;18.50;1.00;;;;;;5028620;28;20393;-74
2022/06/18 01:55:52;;;;;;;5.70;3.97;;;18.50;1.00;;;;;;5029712;28;20454;-74
2022/06/18 01:58:38;;;;;;;6.87;4.30;;;20.40;1.00;;;;;;5027512;28;20463;-74
2022/06/18 02:01:10;;;;;;;8.80;3.83;;;18.50;1.00;;;;;;5029521;28;20413;-74
2022/06/18 02:03:37;;;;;;;8.73;4.17;;;18.50;1.00;;;;;;5028701;28;20415;-74
2022/06/18 02:06:04;;;;;;;7.43;4.23;;;18.50;1.00;;;;;;5023177;28;20944;-74
2022/06/18 02:08:30;;;;;;;6.43;3.77;;;18.50;1.00;;;;;;5028580;28;20436;-74
2022/06/18 02:10:59;;;;;;;4.67;3.70;;;18.60;1.00;;;;;;5027317;28;20468;-74
2022/06/18 02:13:31;;;;;;;7.23;3.80;;;18.60;1.00;;;;;;5027949;28;20197;-74
2022/06/18 02:15:58;;;;;;;5.43;3.73;;;18.60;1.00;;;;;;5029453;28;20411;-74
2022/06/18 02:18:24;;;;;;;5.60;3.83;;;18.70;1.00;;;;;;5028871;28;20437;-74
2022/06/18 02:20:53;;;;;;;6.70;3.60;;;18.70;1.00;;;;;;5027204;28;20424;-74
2022/06/18 02:23:21;;;;;;;5.90;3.97;;;18.70;1.00;;;;;;5028522;28;20412;-74
2022/06/18 02:25:47;;;;;;;7.33;4.13;;;18.70;1.00;;;;;;5029090;28;20404;-74
2022/06/18 02:28:22;;;;;;;5.53;4.00;;;18.70;1.00;;;;;;5026547;28;20440;-74
2022/06/18 02:30:48;;;;;;;6.27;4.40;;;18.70;1.00;;;;;;5037422;28;20494;-75
2022/06/18 02:33:23;;;;;;;5.67;4.00;;;18.70;1.00;;;;;;5048034;28;20876;-74
2022/06/18 02:35:49;;;;;;;9.63;4.07;;;18.70;1.00;;;;;;5048324;28;20208;-74
2022/06/18 02:38:17;;;;;;;7.00;3.70;;;18.80;1.00;;;;;;5048212;28;21046;-74
2022/06/18 02:40:43;;;;;;;5.07;3.93;;;18.60;1.00;;;;;;5047562;28;20319;-75
2022/06/18 02:43:09;;;;;;;7.60;3.83;;;18.60;1.00;;;;;;5046950;28;20418;-74
2022/06/18 02:45:35;;;;;;;5.73;3.63;;;18.50;1.00;;;;;;5026078;28;20415;-74
2022/06/18 02:48:01;;;;;;;5.60;3.93;;;18.50;1.00;;;;;;5028442;28;20209;-75
2022/06/18 02:50:31;;;;;;;10.23;4.60;;;18.50;1.00;;;;;;5028727;28;20479;-74
2022/06/18 02:53:02;;;;;;;6.90;4.27;;;18.50;1.00;;;;;;5026505;28;20197;-74
2022/06/18 02:55:37;;;;;;;5.23;4.03;;;18.40;1.00;;;;;;5029004;28;20411;-74
2022/06/18 02:58:17;;;;;;;6.60;4.20;;;18.30;1.00;;;;;;5027333;28;20434;-74
2022/06/18 03:00:47;;;;;;;5.03;3.90;;;18.30;1.00;;;;;;5034209;28;20419;-75
2022/06/18 03:03:15;;;;;;;6.27;4.10;;;18.30;1.00;;;;;;5047953;28;20443;-74
2022/06/18 03:05:41;;;;;;;5.23;3.97;;;18.30;1.00;;;;;;5048526;28;20407;-74
2022/06/18 03:08:07;;;;;;;14.67;4.57;;;18.20;1.00;;;;;;5048373;28;20597;-75
2022/06/18 03:13:18;;;;;;;4.83;4.13;;;18.20;1.00;;;;;;5051681;28;20448;-74
2022/06/18 03:15:46;;;;;;;8.23;4.40;;;18.20;1.00;;;;;;5052489;28;20498;-75
2022/06/18 03:18:12;;;;;;;9.43;4.27;;;18.30;1.00;;;;;;5029353;28;20292;-74
2022/06/18 03:20:45;;;;;;;6.13;4.07;;;18.10;1.00;;;;;;5012027;28;20757;-75
2022/06/18 03:23:15;;;;;;;5.83;4.17;;;18.00;1.00;;;;;;5011852;28;20398;-74
2022/06/18 03:25:41;;;;;;;6.63;3.80;;;18.00;1.00;;;;;;5021176;28;20499;-74
2022/06/18 03:28:07;;;;;;;8.30;3.63;;;17.90;1.00;;;;;;5032761;28;20463;-74
2022/06/18 03:30:32;;;;;;;11.80;4.50;;;18.00;1.00;;;;;;5037259;28;20202;-73
2022/06/18 03:32:58;;;;;;;8.97;4.17;;;18.00;1.00;;;;;;5053347;28;20411;-74
2022/06/18 03:35:24;;;;;;;10.80;5.00;;;18.00;1.00;;;;;;5051043;28;20817;-74
2022/06/18 03:37:49;;;;;;;9.27;4.30;;;18.00;1.00;;;;;;5050225;28;20240;-74
2022/06/18 03:40:15;;;;;;;5.80;3.90;;;18.00;1.00;;;;;;5051946;28;20169;-73
2022/06/18 03:42:41;;;;;;;5.03;3.47;;;18.00;1.00;;;;;;5049811;28;20684;-74
2022/06/18 03:45:07;;;;;;;9.17;3.57;;;18.10;1.00;;;;;;5051969;28;20719;-74
2022/06/18 03:47:34;;;;;;;6.10;4.60;;;18.10;1.00;;;;;;5049655;28;20976;-74
2022/06/18 03:50:00;;;;;;;5.73;3.80;;;18.10;1.00;;;;;;5031177;28;20420;-74
2022/06/18 03:52:25;;;;;;;4.97;3.97;;;18.20;1.00;;;;;;5030411;28;20460;-74
2022/06/18 03:54:51;;;;;;;6.60;3.97;;;18.30;1.00;;;;;;5032021;28;20177;-75
2022/06/18 03:57:18;;;;;;;5.60;3.80;;;18.30;1.00;;;;;;5031518;28;20185;-74
2022/06/18 03:59:44;;;;;;;4.83;3.23;;;18.30;1.00;;;;;;5035915;28;20790;-74
2022/06/18 04:02:10;;;;;;;10.23;3.87;;;18.40;1.00;;;;;;5044099;28;20503;-75
2022/06/18 04:04:35;;;;;;;7.50;4.00;;;18.50;1.00;;;;;;5051202;28;20173;-74
2022/06/18 04:07:01;;;;;;;4.17;3.77;;;18.50;1.00;;;;;;5027223;28;20273;-74
2022/06/18 04:09:26;;;;;;;5.50;3.80;;;18.60;1.00;;;;;;5030987;28;20551;-74
2022/06/18 04:11:52;;;;;;;4.80;3.83;;;18.60;1.00;;;;;;5030432;28;20201;-74
2022/06/18 04:14:17;;;;;;;5.23;3.57;;;18.70;1.00;;;;;;5031504;28;20170;-74
2022/06/18 04:16:43;;;;;;;4.23;3.80;;;18.80;1.00;;;;;;5031496;28;20170;-74
2022/06/18 04:19:10;;;;;;;4.60;3.53;;;18.80;1.00;;;;;;5029141;28;20259;-75
2022/06/18 04:21:35;;;;;;;4.27;3.87;;;18.90;1.00;;;;;;5029089;28;20178;-74
2022/06/18 04:24:01;;;;;;;7.27;4.03;;;19.00;1.00;;;;;;5029684;28;20416;-75
2022/06/18 04:26:27;;;;;;;5.57;3.67;;;19.00;1.00;;;;;;5031179;28;20205;-74
2022/06/18 04:28:52;;;;;;;5.50;4.10;;;19.10;1.00;;;;;;5027887;28;20585;-75
2022/06/18 04:31:18;;;;;;;5.63;3.07;;;19.20;1.00;;;;;;5040738;28;20237;-74
2022/06/18 04:33:45;;;;;;;4.40;3.40;;;19.20;1.00;;;;;;5050206;28;20172;-74
2022/06/18 04:36:29;;;;;;;7.03;3.70;;;19.20;1.00;;;;;;5050774;28;20172;-74
2022/06/18 04:38:54;;;;;;;7.23;4.10;;;19.30;1.00;;;;;;5050370;28;20856;-74
2022/06/18 04:41:20;;;;;;;5.93;3.80;;;19.30;1.00;;;;;;5050224;28;20419;-75
2022/06/18 04:43:45;;;;;;;4.43;3.47;;;19.30;1.00;;;;;;5042914;28;20182;-74
2022/06/18 04:46:11;;;;;;;3.83;3.37;;;19.40;1.00;;;;;;5029297;28;20693;-74
2022/06/18 04:48:36;;;;;;;7.23;3.70;;;19.60;1.00;;;;;;5030003;28;20292;-75
2022/06/18 04:51:02;;;;;;;5.37;3.40;;;19.60;1.00;;;;;;5029570;28;20201;-74
2022/06/18 04:53:28;;;;;;;3.80;3.20;;;19.80;1.00;;;;;;5030156;28;20170;-74
2022/06/18 04:55:53;;;;;;;3.70;3.20;;;19.80;1.00;;;;;;5030519;28;20458;-74
2022/06/18 04:58:19;;;;;;;5.00;3.90;;;19.90;1.00;;;;;;5028289;28;20185;-75
2022/06/18 05:00:45;;;;;;;5.70;3.60;;;20.20;1.00;;;;;;5038197;28;20683;-74
2022/06/18 05:03:18;;;;;;;4.30;3.10;;;20.20;1.00;;;;;;5049568;28;20197;-74
2022/06/18 05:05:43;;;;;;;6.17;3.10;;;20.30;1.00;;;;;;5048338;28;20195;-74
2022/06/18 05:08:09;;;;;;;4.13;3.43;;;20.40;1.00;;;;;;5049722;28;20888;-75
2022/06/18 05:10:34;;;;;;;6.17;3.50;;;20.60;1.00;;;;;;5050228;28;20193;-74
2022/06/18 05:13:02;;;;;;;5.50;3.80;;;20.80;1.00;;;;;;5048292;28;20196;-75
2022/06/18 05:15:28;;;;;;;5.00;3.80;;;20.90;1.00;;;;;;5050333;28;20191;-74
2022/06/18 05:17:53;;;;;;;4.43;3.30;;;21.10;1.00;;;;;;5049781;28;20458;-74
2022/06/18 05:20:22;;;;;;;4.33;3.70;;;21.20;1.00;;;;;;5049161;28;20197;-75
2022/06/18 05:22:48;;;;;;;4.10;3.60;;;21.30;1.00;;;;;;5042134;28;20177;-74
2022/06/18 05:25:14;;;;;;;7.43;3.70;;;21.50;1.00;;;;;;5015181;28;20408;-75
2022/06/18 05:27:40;;;;;;;4.00;3.50;;;21.60;1.00;;;;;;5029377;28;20424;-75
2022/06/18 05:30:09;;;;;;;4.20;3.43;;;21.70;1.00;;;;;;5033725;28;20495;-74
2022/06/18 05:32:34;;;;;;;4.53;3.50;;;21.90;1.00;;;;;;5043942;28;20454;-74
2022/06/18 05:35:00;;;;;;;6.17;3.60;;;21.90;1.00;;;;;;5048634;28;20759;-74
2022/06/18 05:37:28;;;;;;;8.17;3.60;;;22.10;1.00;;;;;;5048800;28;20238;-75
2022/06/18 05:39:54;;;;;;;7.40;3.77;;;22.20;1.00;;;;;;5048276;28;20255;-75
2022/06/18 05:42:21;;;;;;;5.23;4.17;;;22.30;1.00;;;;;;5042516;28;20550;-75
2022/06/18 05:44:47;;;;;;;5.50;3.73;;;22.40;1.00;;;;;;5028380;28;20659;-74
2022/06/18 05:47:20;;;;;;;5.73;4.20;;;22.60;1.00;;;;;;5029407;28;20435;-75
2022/06/18 05:49:45;;;;;;;6.30;3.97;;;22.70;1.00;;;;;;5028988;28;20248;-75
2022/06/18 05:52:11;;;;;;;7.47;3.90;;;22.80;1.00;;;;;;5028079;28;20530;-74
2022/06/18 05:54:37;;;;;;;6.37;3.70;;;22.90;1.00;;;;;;5029895;28;20191;-75
2022/06/18 05:57:03;;;;;;;6.70;4.00;;;23.10;1.00;;;;;;5029238;28;20494;-75
2022/06/18 05:59:29;;;;;;;5.77;4.27;;;23.00;1.00;;;;;;5031167;28;20173;-75
2022/06/18 06:01:56;;;;;;;4.83;4.13;;;23.10;1.00;;;;;;5040372;28;20430;-75
2022/06/18 06:04:23;;;;;;;5.23;4.07;;;23.10;1.00;;;;;;5048387;28;20200;-75
2022/06/18 06:06:48;;;;;;;5.73;4.23;;;23.10;1.00;;;;;;5026978;28;20413;-73
2022/06/18 06:11:28;;;;;;;4.60;3.90;;;23.20;1.00;;;;;;5028726;28;20505;-75
2022/06/18 06:12:00;;;;;;;5.37;4.40;;;23.20;1.00;;;;;;5028420;28;20217;-75
2022/06/18 06:14:25;;;;;;;6.23;4.27;;;23.30;1.00;;;;;;5029106;28;20568;-75
2022/06/18 06:16:51;;;;;;;6.37;3.97;;;23.40;1.00;;;;;;5029161;28;20242;-74
2022/06/18 06:19:16;;;;;;;4.90;4.23;;;23.50;1.00;;;;;;5028349;28;20199;-75
2022/06/18 06:21:41;;;;;;;5.37;4.23;;;23.60;1.00;;;;;;5026809;28;20578;-74
2022/06/18 06:24:07;;;;;;;5.73;3.63;;;23.70;1.00;;;;;;5028724;28;20157;-74
2022/06/18 06:26:35;;;;;;;7.67;3.90;;;23.70;1.00;;;;;;5029293;28;20169;-76
2022/06/18 06:29:01;;;;;;;6.00;4.20;;;23.80;1.00;;;;;;5028712;28;20192;-76
2022/06/18 06:31:27;;;;;;;5.50;4.10;;;23.80;1.00;;;;;;5040186;28;20798;-76
2022/06/18 06:33:53;;;;;;;5.33;4.27;;;23.90;1.00;;;;;;5048293;28;20490;-76
2022/06/18 06:36:18;;;;;;;14.73;3.83;;;24.00;1.00;;;;;;5049080;28;20240;-76
2022/06/18 06:38:44;;;;;;;4.60;4.10;;;24.10;1.00;;;;;;5048817;28;20690;-76
2022/06/18 06:41:13;;;;;;;4.70;3.77;;;24.30;1.00;;;;;;5048542;28;20164;-78
2022/06/18 06:43:39;;;;;;;6.07;4.17;;;24.50;1.00;;;;;;5040735;28;20319;-75
2022/06/18 06:46:04;;;;;;;7.20;4.70;;;24.60;1.00;;;;;;5029273;28;20535;-76
2022/06/18 06:48:30;;;;;;;5.20;4.13;;;24.60;1.00;;;;;;5032478;28;20762;-77
2022/06/18 06:50:56;;;;;;;6.13;3.97;;;24.60;1.00;;;;;;5032003;28;20687;-74
2022/06/18 06:53:22;;;;;;;5.20;4.27;;;24.70;1.00;;;;;;5031910;28;20181;-74
2022/06/18 06:58:33;;;;;;;11.00;4.90;;;24.80;1.00;;;;;;5029126;28;20283;-75
2022/06/18 07:00:59;;;;;;;5.65;3.78;;;25.00;1.00;;;;;;5042897;28;20894;-75
2022/06/18 07:03:28;;;;;;;7.47;4.23;;;25.20;1.00;;;;;;5052282;28;20180;-75
2022/06/18 07:05:55;;;;;;;8.00;3.90;;;25.40;1.00;;;;;;5051890;28;20164;-75
2022/06/18 07:08:20;;;;;;;4.93;4.03;;;25.50;1.00;;;;;;5052164;28;20987;-75
2022/06/18 07:10:48;;;;;;;5.47;4.37;;;25.40;1.00;;;;;;5052397;28;20600;-75
2022/06/18 07:13:14;;;;;;;8.00;4.17;;;25.50;1.00;;;;;;5050457;28;20614;-76
2022/06/18 07:15:40;;;;;;;4.50;3.93;;;25.60;1.00;;;;;;5052563;28;20490;-75
2022/06/18 07:18:13;;;;;;;7.43;4.53;;;25.50;1.00;;;;;;5051917;28;20188;-75
2022/06/18 07:20:39;;;;;;;8.40;4.30;;;25.60;1.00;;;;;;5051682;28;20168;-75
2022/06/18 07:23:04;;;;;;;6.80;3.97;;;25.60;1.00;;;;;;5051423;28;20498;-75
2022/06/18 07:25:30;;;;;;;6.40;4.10;;;25.70;1.00;;;;;;5038277;28;20263;-74
2022/06/18 07:27:56;;;;;;;5.47;4.03;;;25.80;1.00;;;;;;5031721;28;20205;-75
2022/06/18 07:30:21;;;;;;;5.17;4.67;;;25.90;1.00;;;;;;5032602;28;20169;-75
2022/06/18 07:32:49;;;;;;;6.80;4.27;;;26.00;1.00;;;;;;5033040;28;20181;-75
2022/06/18 07:35:23;;;;;;;5.33;4.20;;;26.20;1.00;;;;;;5032030;28;20407;-75
2022/06/18 07:37:49;;;;;;;6.93;4.27;;;26.40;1.00;;;;;;5031595;28;20831;-75
2022/06/18 07:40:16;;;;;;;5.73;4.13;;;26.30;1.00;;;;;;5030716;28;20503;-74
2022/06/18 07:42:43;;;;;;;11.13;4.13;;;26.60;1.00;;;;;;5031030;28;20599;-75
2022/06/18 07:45:17;;;;;;;6.70;4.53;;;26.80;1.00;;;;;;5032173;28;20404;-75
2022/06/18 07:47:45;;;;;;;5.53;4.00;;;27.00;1.00;;;;;;5031881;28;20280;-75
2022/06/18 07:50:10;;;;;;;6.77;4.30;;;27.40;1.00;;;;;;5031133;28;20188;-75
2022/06/18 07:52:36;;;;;;;10.60;4.03;;;27.60;1.00;;;;;;5029210;28;20695;-75
2022/06/18 07:55:02;;;;;;;10.53;4.27;;;27.60;1.00;;;;;;5032075;28;20185;-76
2022/06/18 07:57:28;;;;;;;5.87;4.20;;;27.70;1.00;;;;;;5031469;28;20192;-75
2022/06/18 07:59:54;;;;;;;5.70;4.07;;;27.90;1.00;;;;;;5035587;28;20260;-74
2022/06/18 08:02:19;;;;;;;5.57;4.60;;;27.90;1.00;;;;;;5045791;28;20208;-75
2022/06/18 08:04:45;;;;;;;7.37;4.40;;;28.10;1.00;;;;;;5051835;28;20214;-75
2022/06/18 08:07:10;;;;;;;7.67;3.97;;;28.50;1.00;;;;;;5025823;28;20185;-76
2022/06/18 08:09:36;;;;;;;5.00;3.90;;;28.50;1.00;;;;;;5032392;28;20196;-75
2022/06/18 08:12:02;;;;;;;6.13;4.00;;;28.50;1.00;;;;;;5032425;28;20201;-75
2022/06/18 08:14:28;;;;;;;7.17;4.00;;;28.60;1.00;;;;;;5034378;28;20249;-76
2022/06/18 08:16:53;;;;;;;4.63;3.40;;;28.90;1.00;;;;;;5039226;28;20686;-75
2022/06/18 08:19:19;;;;;;;8.53;3.80;;;29.20;1.00;;;;;;5041496;28;20385;-76
2022/06/18 08:21:45;;;;;;;6.37;3.63;;;29.40;1.00;;;;;;5033858;28;20187;-76
2022/06/18 08:24:15;;;;;;;7.13;4.10;;;29.70;1.00;;;;;;5036130;28;20180;-76
2022/06/18 08:26:41;;;;;;;5.10;3.50;;;29.80;1.00;;;;;;5031424;28;20172;-75
2022/06/18 08:29:10;;;;;;;7.32;3.60;;;30.00;1.00;;;;;;5031400;28;20268;-75
2022/06/18 08:31:36;;;;;;;5.57;4.13;;;30.30;1.00;;;;;;5041996;28;20682;-75
2022/06/18 08:34:02;;;;;;;5.38;4.10;;;30.10;1.00;;;;;;5050060;28;20176;-75
2022/06/18 08:36:28;;;;;;;5.13;4.22;;;29.90;1.00;;;;;;5050985;28;20219;-76
2022/06/18 08:38:54;;;;;;;5.55;4.00;;;30.10;1.00;;;;;;5050620;28;20188;-75
2022/06/18 08:41:57;;;;;;;6.35;4.32;;;30.30;1.00;;;;;;5050395;28;20531;-75
2022/06/18 08:44:43;;;;;;;5.55;4.28;;;30.70;1.00;;;;;;5037813;28;20504;-75
2022/06/18 08:47:58;;;;;;;6.78;4.32;;;31.10;1.00;;;;;;5030596;28;20199;-75
2022/06/18 08:50:53;;;;;;;9.43;4.10;;;31.30;1.00;;;;;;4991004;28;20182;-76
2022/06/18 08:53:34;;;;;;;9.40;3.53;;;31.80;1.00;;;;;;4996747;28;20269;-75
2022/06/18 08:56:10;;;;;;;6.25;4.20;;;32.20;1.00;;;;;;5019482;28;20182;-76
2022/06/18 08:58:51;;;;;;;5.85;4.10;;;32.40;1.00;;;;;;5025829;28;20194;-76
2022/06/18 09:01:23;;;;;;;4.07;3.67;;;32.40;1.00;;;;;;5040980;28;20249;-75
2022/06/18 09:04:13;;;;;;;8.88;3.72;;;32.50;1.00;;;;;;5047869;28;20574;-76
2022/06/18 09:07:16;;;;;;;5.28;3.78;;;32.40;1.00;;;;;;5049614;28;20165;-77
2022/06/18 09:10:04;;;;;;;9.27;3.60;;;32.80;1.00;;;;;;5049350;28;20243;-76
2022/06/18 09:12:56;;;;;;;5.90;3.55;;;33.30;1.00;;;;;;5046350;28;20413;-76
2022/06/18 09:15:34;;;;;;;5.30;3.83;;;34.50;1.00;;;;;;5048622;28;20169;-76
2022/06/18 09:18:21;;;;;;;4.30;3.50;;;34.70;1.00;;;;;;5049338;28;20241;-76
2022/06/18 09:20:54;;;;;;;4.55;3.67;;;35.60;1.00;;;;;;5047643;28;20547;-76
2022/06/18 09:23:29;;;;;;;8.25;3.67;;;36.30;1.00;;;;;;5049211;28;20230;-76
2022/06/18 09:25:58;;;;;;;6.05;3.47;;;36.60;1.00;;;;;;5033974;28;20181;-75
2022/06/18 09:28:50;;;;;;;4.75;3.28;;;37.60;1.00;;;;;;5026524;28;20308;-76
2022/06/18 09:31:41;;;;;;;7.15;3.50;;;38.50;1.00;;;;;;5031321;28;20342;-76
2022/06/18 09:34:25;;;;;;;3.95;3.20;;;38.70;1.00;;;;;;5028347;28;20715;-77
2022/06/18 09:36:56;;;;;;;5.97;3.08;;;39.00;1.00;;;;;;5022120;28;20227;-77
2022/06/18 09:39:31;;;;;;;8.43;3.20;;;39.90;1.00;;;;;;5009667;28;20169;-77
2022/06/18 09:42:09;;;;;;;4.28;2.83;;;40.70;1.00;;;;;;5009166;28;20312;-77
2022/06/18 09:45:04;;;;;;;4.13;2.75;;;41.40;1.00;;;;;;5008384;28;20270;-77
2022/06/18 09:47:38;;;;;;;5.30;3.10;;;41.00;1.00;;;;;;5006791;28;20236;-76
2022/06/18 09:50:12;;;;;;;3.20;2.90;;;40.90;1.00;;;;;;5008980;28;20179;-77
2022/06/18 09:52:40;;;;;;;4.88;2.90;;;40.60;1.00;;;;;;5008686;28;20201;-77
2022/06/18 09:55:12;;;;;;;3.47;2.53;;;41.10;1.00;;;;;;5008153;28;20170;-77
2022/06/18 09:57:41;;;;;;;3.38;2.80;;;41.00;1.00;;;;;;5009515;28;20183;-77
2022/06/18 10:00:17;;;;;;;2.97;2.45;;;41.20;1.00;;;;;;5034554;28;20220;-77
2022/06/18 10:02:56;;;;;;;4.50;2.70;;;41.70;1.00;;;;;;5044846;28;20176;-77
2022/06/18 10:08:11;;;;;;;6.82;2.50;;;42.00;1.00;;;;;;5021808;28;20199;-77
2022/06/18 10:10:45;;;;;;;3.67;2.40;;;42.30;1.00;;;;;;5029398;28;20178;-77
2022/06/18 10:13:15;;;;;;;7.85;2.47;;;42.40;1.00;;;;;;5028660;28;20192;-77
2022/06/18 10:15:41;;;;;;;4.63;2.30;;;42.50;1.00;;;;;;5028984;28;20169;-77
2022/06/18 10:18:18;;;;;;;3.10;2.33;;;42.40;1.00;;;;;;5027434;28;20647;-77
2022/06/18 10:20:57;;;;;;;3.35;2.55;;;42.70;1.00;;;;;;5027624;28;20265;-77
2022/06/18 10:23:59;;;;;;;3.60;2.58;;;42.90;1.00;;;;;;5028252;28;20264;-77
2022/06/18 10:26:30;;;;;;;3.70;1.95;;;43.60;1.00;;;;;;5029053;28;20197;-77
2022/06/18 10:29:08;;;;;;;3.35;2.25;;;43.90;1.00;;;;;;5025696;28;20282;-77
2022/06/18 10:31:52;;;;;;;6.57;2.97;;;44.00;1.00;;;;;;5038588;28;20291;-77
2022/06/18 10:34:32;;;;;;;3.05;2.10;;;44.30;1.00;;;;;;5048011;28;20620;-77
2022/06/18 10:37:28;;;;;;;3.85;2.22;;;44.10;1.00;;;;;;5048666;28;20166;-77
2022/06/18 10:40:12;;;;;;;5.18;2.03;;;44.10;1.00;;;;;;5047339;28;20169;-77
2022/06/18 10:42:51;;;;;;;4.28;1.98;;;44.10;1.00;;;;;;5046342;28;20173;-77
2022/06/18 10:45:47;;;;;;;6.40;2.72;;;44.90;1.00;;;;;;5028520;28;20547;-77
2022/06/18 10:48:27;;;;;;;9.15;2.20;;;44.90;1.00;;;;;;5026827;28;20209;-78
2022/06/18 10:50:55;;;;;;;2.53;1.63;;;45.00;1.00;;;;;;5027405;28;20547;-77
2022/06/18 10:53:25;;;;;;;4.47;2.10;;;45.00;1.00;;;;;;5026656;28;20237;-77
2022/06/18 10:56:03;;;;;;;5.25;2.10;;;44.20;1.00;;;;;;5028764;28;20190;-77
2022/06/18 10:58:29;;;;;;;6.00;2.08;;;43.80;1.00;;;;;;5025350;28;20193;-77
2022/06/18 11:01:10;;;;;;;4.95;2.05;;;43.90;1.00;;;;;;5038447;28;20643;-77
2022/06/18 11:03:36;;;;;;;5.30;2.38;;;43.60;1.00;;;;;;5047657;28;20643;-77
2022/06/18 11:06:13;;;;;;;8.70;2.45;;;43.80;1.00;;;;;;5048282;28;20252;-77
2022/06/18 11:08:50;;;;;;;4.32;1.92;;;44.30;1.00;;;;;;5047735;28;20258;-77
2022/06/18 11:11:21;;;;;;;7.70;2.53;;;44.90;1.00;;;;;;5047817;28;20214;-77
2022/06/18 11:13:48;;;;;;;5.00;1.95;;;44.90;1.00;;;;;;5048212;28;20168;-77
2022/06/18 11:16:41;;;;;;;6.95;2.38;;;45.40;1.00;;;;;;5046939;28;20230;-76
2022/06/18 11:19:17;;;;;;;7.15;2.10;;;46.30;1.00;;;;;;5047264;28;20246;-77
2022/06/18 11:21:43;;;;;;;5.78;2.30;;;46.20;1.00;;;;;;5047281;28;20168;-77
2022/06/18 11:24:14;;;;;;;8.38;2.20;;;45.40;1.00;;;;;;5046519;28;20264;-77
2022/06/18 11:26:50;;;;;;;9.75;2.67;;;45.00;1.00;;;;;;5024920;28;20170;-77
2022/06/18 11:29:31;;;;;;;8.77;2.45;;;45.50;1.00;;;;;;5029643;28;20196;-77
2022/06/18 11:32:00;;;;;;;4.70;2.30;;;45.70;1.00;;;;;;5025081;28;20606;-77
2022/06/18 11:34:29;;;;;;;9.15;2.45;;;46.20;1.00;;;;;;5031027;28;20173;-77
2022/06/18 11:36:58;;;;;;;6.88;1.92;;;46.80;1.00;;;;;;5031573;28;20219;-77
2022/06/18 11:39:30;;;;;;;7.30;2.55;;;46.70;1.00;;;;;;5030153;28;20169;-77
2022/06/18 11:42:01;;;;;;;8.25;2.45;;;47.10;1.00;;;;;;5030834;28;20169;-78
2022/06/18 11:44:39;;;;;;;6.43;2.38;;;47.00;1.00;;;;;;5031892;28;20227;-77
2022/06/18 11:47:17;;;;;;;7.40;2.28;;;47.30;1.00;;;;;;5031426;28;20184;-77
2022/06/18 11:49:57;;;;;;;6.43;2.65;;;47.50;1.00;;;;;;5031110;28;20166;-77
2022/06/18 11:52:46;;;;;;;6.80;2.50;;;47.20;1.00;;;;;;5029947;28;20606;-77
2022/06/18 11:55:18;;;;;;;7.45;2.45;;;46.50;1.00;;;;;;5031407;28;20690;-76
2022/06/18 11:58:09;;;;;;;8.73;2.90;;;46.70;1.00;;;;;;5031549;28;20323;-77
2022/06/18 12:01:09;;;;;;;7.05;2.38;;;47.10;1.00;;;;;;5038101;28;20165;-77
2022/06/18 12:03:43;;;;;;;8.68;2.30;;;47.20;1.00;;;;;;5050523;28;20175;-77
2022/06/18 12:06:17;;;;;;;6.93;2.30;;;46.80;1.00;;;;;;5034567;28;20176;-77
2022/06/18 12:08:44;;;;;;;10.00;2.53;;;47.00;1.00;;;;;;5031020;28;20197;-77
2022/06/18 12:11:24;;;;;;;6.80;2.40;;;47.40;1.00;;;;;;5030487;28;20189;-76
2022/06/18 12:13:56;;;;;;;10.43;2.72;;;46.80;1.00;;;;;;5029448;28;20176;-77
2022/06/18 12:16:34;;;;;;;5.40;2.00;;;46.50;1.00;;;;;;5029800;28;20181;-78
2022/06/18 12:19:06;;;;;;;6.78;2.22;;;46.50;1.00;;;;;;5028638;28;20212;-77
2022/06/18 12:21:51;;;;;;;10.48;3.03;;;46.60;1.00;;;;;;5029967;28;20354;-77
2022/06/18 12:24:37;;;;;;;7.28;2.50;;;47.50;1.00;;;;;;5030645;28;20173;-78
2022/06/18 12:27:18;;;;;;;6.68;2.08;;;47.70;1.00;;;;;;5030628;28;20283;-77
2022/06/18 12:30:14;;;;;;;6.47;2.40;;;47.60;1.00;;;;;;5034443;28;20715;-78
2022/06/18 12:33:07;;;;;;;17.92;3.33;;;47.60;1.00;;;;;;5047145;28;20273;-77
2022/06/18 12:35:59;;;;;;;9.88;2.40;;;47.50;1.00;;;;;;5049866;28;20256;-78
2022/06/18 12:38:34;;;;;;;11.40;2.70;;;47.70;1.00;;;;;;5050270;28;20226;-77
2022/06/18 12:41:38;;;;;;;10.32;2.38;;;47.40;1.00;;;;;;5050346;28;20661;-78
2022/06/18 12:44:33;;;;;;;6.78;2.53;;;47.30;1.00;;;;;;5035413;28;20177;-78
2022/06/18 12:47:19;;;;;;;10.90;2.58;;;46.70;1.00;;;;;;5000573;28;20210;-78
2022/06/18 12:49:59;;;;;;;9.40;2.40;;;47.00;1.00;;;;;;5010419;28;20170;-77
2022/06/18 12:52:33;;;;;;;6.53;2.50;;;47.30;1.00;;;;;;5023711;28;20609;-78
2022/06/18 12:55:06;;;;;;;9.57;2.78;;;47.00;1.00;;;;;;5030123;28;20174;-77
2022/06/18 12:57:52;;;;;;;14.20;2.78;;;46.60;1.00;;;;;;5029138;28;20216;-77
2022/06/18 13:00:20;;;;;;;10.63;2.95;;;47.00;1.00;;;;;;5034249;28;20196;-77
2022/06/18 13:03:04;;;;;;;14.93;3.28;;;47.00;1.00;;;;;;5046324;28;20176;-78
2022/06/18 13:05:43;;;;;;;13.98;2.83;;;47.20;1.00;;;;;;5048207;28;20181;-78
2022/06/18 13:08:17;;;;;;;7.88;2.60;;;46.90;1.00;;;;;;5049792;28;20195;-77
2022/06/18 13:11:09;;;;;;;11.40;2.83;;;47.50;1.00;;;;;;5050318;28;20176;-77
2022/06/18 13:13:53;;;;;;;11.20;3.00;;;47.10;1.00;;;;;;5049533;28;20165;-77
2022/06/18 13:16:26;;;;;;;12.15;2.42;;;47.20;1.00;;;;;;5050112;28;20173;-77
2022/06/18 13:19:03;;;;;;;8.10;3.10;;;47.00;1.00;;;;;;5049082;28;20599;-78
2022/06/18 13:21:29;;;;;;;11.98;2.80;;;47.20;1.00;;;;;;5049122;28;20183;-78
2022/06/18 13:29:41;;;;;;;10.80;2.80;;;46.90;1.00;;;;;;5033483;28;20187;-77
2022/06/18 13:32:23;;;;;;;14.02;2.75;;;46.90;1.00;;;;;;5034354;28;20245;-78
2022/06/18 13:35:18;;;;;;;11.48;3.08;;;47.20;1.00;;;;;;5048919;28;20636;-77